createdAt,value
2023-05-04T00:00:13.953Z,67.66
2023-05-04T00:03:02.715Z,67.71
2023-05-04T00:05:31.724Z,68.07
2023-05-04T00:08:02.007Z,67.99
2023-05-04T00:10:30.923Z,68.73
2023-05-04T00:12:59.623Z,69.69
2023-05-04T00:15:30.356Z,69.78
2023-05-04T00:17:59.064Z,69.68
2023-05-04T00:20:28.030Z,70.05
2023-05-04T00:22:56.620Z,71.15
2023-05-04T00:25:27.211Z,70.65
2023-05-04T00:27:55.858Z,70.70
2023-05-04T00:30:24.868Z,71.06
2023-05-04T00:32:54.419Z,71.45
2023-05-04T00:35:23.354Z,71.46
2023-05-04T00:37:51.978Z,71.21
2023-05-04T00:40:21.456Z,71.56
2023-05-04T00:42:51.517Z,70.96
2023-05-04T00:45:20.879Z,71.49
2023-05-04T00:47:51.038Z,71.61
2023-05-04T00:50:20.582Z,71.58
2023-05-04T00:52:51.668Z,72.13
2023-05-04T00:55:21.781Z,71.85
2023-05-04T00:57:53.244Z,72.31
2023-05-04T01:00:22.486Z,72.94
2023-05-04T01:02:52.202Z,72.97
2023-05-04T01:05:21.395Z,73.34
2023-05-04T01:08:03.171Z,73.36
2023-05-04T01:10:42.951Z,73.55
2023-05-04T01:13:17.190Z,74.41
2023-05-04T01:15:47.494Z,74.21
2023-05-04T01:18:17.918Z,73.55
2023-05-04T01:20:46.970Z,73.93
2023-05-04T01:23:17.278Z,73.32
2023-05-04T01:26:00.220Z,73.49
2023-05-04T01:28:40.486Z,72.80
2023-05-04T01:31:17.159Z,72.71
2023-05-04T01:33:46.777Z,72.80
2023-05-04T01:36:16.537Z,72.65
2023-05-04T01:38:49.062Z,73.08
2023-05-04T01:41:18.064Z,73.24
2023-05-04T01:43:46.716Z,72.66
2023-05-04T01:46:15.760Z,72.27
2023-05-04T01:48:44.493Z,72.82
2023-05-04T01:51:13.481Z,72.46
2023-05-04T01:53:42.303Z,72.06
2023-05-04T01:56:13.117Z,72.30
2023-05-04T01:58:41.959Z,71.79
2023-05-04T02:01:11.053Z,72.75
2023-05-04T02:03:39.972Z,73.19
2023-05-04T02:06:09.529Z,73.10
2023-05-04T02:08:38.168Z,72.47
2023-05-04T02:11:07.263Z,73.11
2023-05-04T02:13:37.622Z,72.93
2023-05-04T02:16:07.835Z,72.26
2023-05-04T02:18:36.574Z,72.58
2023-05-04T02:21:05.713Z,72.49
2023-05-04T02:23:34.355Z,73.31
2023-05-04T02:26:03.258Z,73.80
2023-05-04T02:28:32.049Z,74.48
2023-05-04T02:31:02.363Z,75.48
2023-05-04T02:33:31.107Z,74.46
2023-05-04T02:35:59.999Z,74.34
2023-05-04T02:38:28.684Z,74.98
2023-05-04T02:40:58.444Z,75.48
2023-05-04T02:43:27.232Z,74.39
2023-05-04T02:45:56.178Z,74.46
2023-05-04T02:48:26.541Z,74.69
2023-05-04T02:50:56.509Z,74.36
2023-05-04T02:53:25.164Z,74.08
2023-05-04T02:55:54.203Z,74.05
2023-05-04T02:58:22.832Z,74.10
2023-05-04T03:00:55.947Z,73.58
2023-05-04T03:03:26.010Z,74.38
2023-05-04T03:05:54.968Z,74.89
2023-05-04T03:08:23.717Z,74.60
2023-05-04T03:10:52.722Z,74.96
2023-05-04T03:13:21.378Z,75.13
2023-05-04T03:15:50.881Z,75.06
2023-05-04T03:18:19.552Z,75.78
2023-05-04T03:20:52.019Z,74.89
2023-05-04T03:23:22.965Z,75.50
2023-05-04T03:25:52.160Z,74.90
2023-05-04T03:28:20.879Z,74.75
2023-05-04T03:30:49.860Z,75.07
2023-05-04T03:33:20.733Z,74.84
2023-05-04T03:35:51.023Z,74.50
2023-05-04T03:38:19.734Z,75.58
2023-05-04T03:40:48.627Z,75.69
2023-05-04T03:43:17.314Z,76.56
2023-05-04T03:45:46.379Z,80.01
2023-05-04T03:48:15.079Z,82.16
2023-05-04T03:50:44.102Z,81.94
2023-05-04T03:53:14.242Z,81.15
2023-05-04T03:55:44.143Z,79.69
2023-05-04T03:58:13.084Z,78.49
2023-05-04T04:00:42.312Z,78.26
2023-05-04T04:03:16.292Z,77.80
2023-05-04T04:05:45.656Z,77.31
2023-05-04T04:08:15.813Z,77.32
2023-05-04T04:10:44.790Z,76.72
2023-05-04T04:13:13.648Z,77.38
2023-05-04T04:15:44.909Z,77.17
2023-05-04T04:18:13.928Z,77.46
2023-05-04T04:20:43.022Z,77.50
2023-05-04T04:23:11.724Z,77.91
2023-05-04T04:25:44.048Z,78.20
2023-05-04T04:28:13.564Z,77.77
2023-05-04T04:30:42.791Z,77.89
2023-05-04T04:33:12.051Z,77.20
2023-05-04T04:35:41.672Z,76.87
2023-05-04T04:38:10.375Z,77.07
2023-05-04T04:40:39.260Z,77.32
2023-05-04T04:43:09.331Z,76.92
2023-05-04T04:45:39.308Z,77.01
2023-05-04T04:48:08.377Z,76.89
2023-05-04T04:50:40.351Z,77.16
2023-05-04T04:53:09.069Z,76.74
2023-05-04T04:55:38.032Z,77.14
2023-05-04T04:58:08.857Z,78.08
2023-05-04T05:00:38.206Z,78.17
2023-05-04T05:03:06.927Z,77.52
2023-05-04T05:05:35.922Z,77.51
2023-05-04T05:08:04.773Z,77.14
2023-05-04T05:10:33.705Z,76.06
2023-05-04T05:13:03.086Z,75.98
2023-05-04T05:15:33.419Z,75.35
2023-05-04T05:18:02.256Z,72.29
2023-05-04T05:20:31.711Z,71.88
2023-05-04T05:23:00.473Z,71.37
2023-05-04T05:25:29.520Z,70.60
2023-05-04T05:27:58.169Z,69.82
2023-05-04T05:30:28.278Z,68.56
2023-05-04T05:32:58.518Z,66.51
2023-05-04T05:35:27.575Z,63.60
2023-05-04T05:37:56.516Z,60.90
2023-05-04T05:40:25.458Z,59.86
2023-05-04T05:42:54.189Z,60.60
2023-05-04T05:45:23.187Z,55.80
2023-05-04T05:47:52.265Z,57.06
2023-05-04T05:50:24.313Z,55.53
2023-05-04T05:52:53.081Z,54.48
2023-05-04T05:55:21.929Z,53.11
2023-05-04T05:57:50.604Z,49.13
2023-05-04T06:00:20.565Z,49.28
2023-05-04T06:02:49.307Z,50.43
2023-05-04T06:05:18.326Z,50.80
2023-05-04T06:07:48.320Z,48.87
2023-05-04T06:10:17.677Z,47.72
2023-05-04T06:12:46.365Z,47.61
2023-05-04T06:15:15.424Z,45.35
2023-05-04T06:17:44.245Z,43.95
2023-05-04T06:20:13.737Z,43.95
2023-05-04T06:22:42.518Z,45.50
2023-05-04T06:25:13.422Z,42.84
2023-05-04T06:27:42.173Z,42.61
2023-05-04T06:30:13.613Z,42.34
2023-05-04T06:32:42.559Z,41.34
2023-05-04T06:35:11.764Z,41.33
2023-05-04T06:37:40.536Z,39.93
2023-05-04T06:40:12.611Z,39.27
2023-05-04T06:42:41.635Z,39.19
2023-05-04T06:45:11.224Z,39.72
2023-05-04T06:47:39.903Z,40.14
2023-05-04T06:50:10.590Z,38.97
2023-05-04T06:52:41.333Z,38.05
2023-05-04T06:55:12.128Z,37.29
2023-05-04T06:57:42.805Z,37.47
2023-05-04T07:00:13.674Z,37.03
2023-05-04T07:02:42.386Z,36.80
2023-05-04T07:05:11.588Z,37.76
2023-05-04T07:07:40.284Z,36.42
2023-05-04T07:10:10.594Z,37.37
2023-05-04T07:12:40.609Z,36.59
2023-05-04T07:15:11.201Z,37.20
2023-05-04T07:17:40.887Z,36.54
2023-05-04T07:20:11.335Z,37.21
2023-05-04T07:22:39.993Z,36.70
2023-05-04T07:25:09.944Z,36.72
2023-05-04T07:27:43.773Z,36.66
2023-05-04T07:30:13.528Z,37.21
2023-05-04T07:32:42.215Z,36.98
2023-05-04T07:35:11.623Z,36.38
2023-05-04T07:37:40.447Z,36.50
2023-05-04T07:40:11.777Z,37.39
2023-05-04T07:42:42.255Z,37.07
2023-05-04T07:45:11.999Z,36.16
2023-05-04T07:47:40.876Z,35.84
2023-05-04T07:50:10.938Z,36.03
2023-05-04T07:52:39.646Z,36.70
2023-05-04T07:55:10.160Z,36.49
2023-05-04T07:57:38.829Z,34.37
2023-05-04T08:00:11.019Z,35.08
2023-05-04T08:02:42.441Z,34.62
2023-05-04T08:05:11.903Z,34.32
2023-05-04T08:07:40.682Z,33.57
2023-05-04T08:10:10.908Z,32.40
2023-05-04T08:12:41.557Z,31.17
2023-05-04T08:15:13.894Z,32.01
2023-05-04T08:17:42.605Z,30.92
2023-05-04T08:20:13.130Z,31.20
2023-05-04T08:22:41.887Z,32.08
2023-05-04T08:25:11.452Z,31.65
2023-05-04T08:27:40.699Z,30.79
2023-05-04T08:30:12.365Z,30.09
2023-05-04T08:32:41.137Z,30.35
2023-05-04T08:35:10.686Z,30.77
2023-05-04T08:37:39.429Z,29.81
2023-05-04T08:40:10.374Z,29.59
2023-05-04T08:42:40.430Z,28.20
2023-05-04T08:45:12.154Z,27.76
2023-05-04T08:47:43.308Z,28.28
2023-05-04T08:50:13.344Z,29.34
2023-05-04T08:52:47.677Z,27.93
2023-05-04T08:55:18.229Z,28.88
2023-05-04T08:57:47.622Z,28.60
2023-05-04T09:00:20.665Z,30.30
2023-05-04T09:02:51.850Z,28.45
2023-05-04T09:05:21.333Z,28.23
2023-05-04T09:07:52.545Z,28.93
2023-05-04T09:10:21.941Z,29.01
2023-05-04T09:12:50.856Z,29.03
2023-05-04T09:15:25.214Z,29.50
2023-05-04T09:17:59.185Z,28.94
2023-05-04T09:20:28.307Z,27.85
2023-05-04T09:23:07.023Z,27.65
2023-05-04T09:25:47.398Z,28.61
2023-05-04T09:28:16.649Z,27.67
2023-05-04T09:30:48.387Z,27.35
2023-05-04T09:33:17.609Z,26.69
2023-05-04T09:35:46.509Z,25.42
2023-05-04T09:38:27.446Z,25.41
2023-05-04T09:40:57.140Z,25.75
2023-05-04T09:43:25.844Z,25.38
2023-05-04T09:45:56.373Z,25.57
2023-05-04T09:48:29.037Z,25.04
2023-05-04T09:51:00.315Z,25.58
2023-05-04T09:53:31.630Z,25.08
2023-05-04T09:56:11.325Z,23.74
2023-05-04T09:58:40.661Z,24.82
2023-05-04T10:01:12.066Z,24.24
2023-05-04T10:03:42.453Z,23.62
2023-05-04T10:06:13.101Z,22.69
2023-05-04T10:08:42.172Z,23.03
2023-05-04T10:11:11.308Z,22.90
2023-05-04T10:13:40.023Z,22.90
2023-05-04T10:16:27.207Z,22.51
2023-05-04T10:19:36.991Z,22.58
2023-05-04T10:22:30.183Z,22.83
2023-05-04T10:25:36.645Z,22.86
2023-05-04T10:28:21.839Z,23.77
2023-05-04T10:30:58.025Z,22.85
2023-05-04T10:33:39.258Z,22.27
2023-05-04T10:36:09.032Z,22.52
2023-05-04T10:38:41.529Z,22.35
2023-05-04T10:41:17.645Z,23.26
2023-05-04T10:43:49.293Z,23.16
2023-05-04T10:46:22.758Z,21.26
2023-05-04T10:48:53.368Z,20.12
2023-05-04T10:51:26.567Z,20.28
2023-05-04T10:54:01.474Z,20.69
2023-05-04T10:56:30.770Z,23.12
2023-05-04T10:59:10.341Z,20.61
2023-05-04T11:01:44.731Z,20.93
2023-05-04T11:04:22.792Z,20.74
2023-05-04T11:06:59.405Z,21.38
2023-05-04T11:09:29.804Z,21.05
2023-05-04T11:11:58.502Z,21.31
2023-05-04T11:14:29.220Z,21.35
2023-05-04T11:17:23.903Z,21.37
2023-05-04T11:19:57.472Z,21.85
2023-05-04T11:22:26.270Z,22.19
2023-05-04T11:24:56.257Z,21.33
2023-05-04T11:27:27.680Z,22.71
2023-05-04T11:30:01.878Z,21.68
2023-05-04T11:32:38.040Z,21.88
2023-05-04T11:35:11.549Z,21.57
2023-05-04T11:37:41.920Z,22.51
2023-05-04T11:40:14.427Z,22.40
2023-05-04T11:42:44.031Z,22.43
2023-05-04T11:45:18.280Z,21.90
2023-05-04T11:47:48.879Z,22.06
2023-05-04T11:50:21.502Z,21.38
2023-05-04T11:52:50.846Z,21.83
2023-05-04T11:55:38.483Z,22.34
2023-05-04T11:58:10.464Z,22.59
2023-05-04T12:00:41.853Z,22.43
2023-05-04T12:03:13.695Z,22.43
2023-05-04T12:05:52.723Z,23.54
2023-05-04T12:08:27.366Z,23.46
2023-05-04T12:11:14.818Z,23.39
2023-05-04T12:13:46.504Z,24.52
2023-05-04T12:16:18.210Z,25.56
2023-05-04T12:18:48.424Z,26.82
2023-05-04T12:21:21.484Z,25.90
2023-05-04T12:23:50.779Z,27.13
2023-05-04T12:26:19.948Z,26.12
2023-05-04T12:28:48.960Z,26.33
2023-05-04T12:31:18.243Z,26.36
2023-05-04T12:33:46.849Z,26.74
2023-05-04T12:36:15.869Z,27.31
2023-05-04T12:38:46.528Z,26.84
2023-05-04T12:41:15.618Z,28.71
2023-05-04T12:43:44.244Z,27.06
2023-05-04T12:46:13.350Z,26.74
2023-05-04T12:48:42.003Z,27.74
2023-05-04T12:51:10.991Z,27.79
2023-05-04T12:53:41.145Z,27.60
2023-05-04T12:56:11.542Z,27.30
2023-05-04T12:58:40.261Z,27.36
2023-05-04T13:01:09.239Z,27.11
2023-05-04T13:03:37.988Z,26.92
2023-05-04T13:06:07.723Z,26.65
2023-05-04T13:08:36.398Z,27.17
2023-05-04T13:11:05.359Z,27.93
2023-05-04T13:13:35.904Z,26.52
2023-05-04T13:16:06.008Z,26.99
2023-05-04T13:18:34.736Z,27.34
2023-05-04T13:21:03.665Z,27.14
2023-05-04T13:23:32.320Z,26.74
2023-05-04T13:26:01.392Z,27.81
2023-05-04T13:28:29.997Z,26.58
2023-05-04T13:31:00.552Z,27.24
2023-05-04T13:33:30.822Z,28.08
2023-05-04T13:36:02.177Z,27.44
2023-05-04T13:38:30.941Z,26.23
2023-05-04T13:41:00.050Z,26.05
2023-05-04T13:43:29.620Z,26.54
2023-05-04T13:46:04.512Z,25.88
2023-05-04T13:48:34.098Z,26.40
2023-05-04T13:51:04.964Z,24.74
2023-05-04T13:53:33.697Z,25.03
2023-05-04T13:56:02.855Z,26.06
2023-05-04T13:58:31.540Z,25.73
2023-05-04T14:01:01.984Z,25.24
2023-05-04T14:03:33.657Z,25.48
2023-05-04T14:06:02.697Z,25.03
2023-05-04T14:08:31.363Z,25.14
2023-05-04T14:11:00.376Z,25.68
2023-05-04T14:13:29.096Z,25.84
2023-05-04T14:15:58.637Z,25.08
2023-05-04T14:18:32.072Z,25.84
2023-05-04T14:21:01.225Z,25.49
2023-05-04T14:23:29.948Z,25.89
2023-05-04T14:25:58.854Z,25.79
2023-05-04T14:28:27.609Z,26.01
2023-05-04T14:30:56.560Z,26.96
2023-05-04T14:33:25.504Z,26.63
2023-05-04T14:35:56.060Z,26.21
2023-05-04T14:38:24.824Z,26.27
2023-05-04T14:40:55.376Z,27.29
2023-05-04T14:43:24.104Z,26.74
2023-05-04T14:45:53.311Z,26.90
2023-05-04T14:48:24.335Z,26.33
2023-05-04T14:50:54.988Z,25.96
2023-05-04T14:53:24.530Z,26.22
2023-05-04T14:55:53.491Z,26.38
2023-05-04T14:58:22.200Z,26.46
2023-05-04T15:00:51.290Z,26.29
2023-05-04T15:03:20.061Z,26.41
2023-05-04T15:05:49.078Z,26.27
2023-05-04T15:08:19.201Z,27.12
2023-05-04T15:10:48.249Z,27.02
2023-05-04T15:13:17.944Z,27.31
2023-05-04T15:15:46.943Z,26.69
2023-05-04T15:18:15.970Z,26.30
2023-05-04T15:20:45.232Z,27.03
2023-05-04T15:23:13.951Z,26.60
2023-05-04T15:25:44.668Z,26.47
2023-05-04T15:28:13.546Z,28.21
2023-05-04T15:30:43.503Z,27.48
2023-05-04T15:33:12.330Z,27.08
2023-05-04T15:35:41.459Z,27.42
2023-05-04T15:38:10.169Z,27.75
2023-05-04T15:40:39.254Z,26.65
2023-05-04T15:43:09.300Z,26.80
2023-05-04T15:45:38.294Z,26.63
2023-05-04T15:48:07.337Z,26.24
2023-05-04T15:50:36.279Z,27.01
2023-05-04T15:53:05.077Z,27.74
2023-05-04T15:55:34.595Z,28.54
2023-05-04T15:58:03.306Z,27.02
2023-05-04T16:00:34.291Z,27.07
2023-05-04T16:03:03.169Z,26.98
2023-05-04T16:05:32.372Z,28.25
2023-05-04T16:08:01.192Z,26.26
2023-05-04T16:10:30.390Z,28.44
2023-05-04T16:13:04.006Z,27.88
2023-05-04T16:15:34.660Z,27.21
2023-05-04T16:18:03.504Z,28.59
2023-05-04T16:20:32.532Z,27.23
2023-05-04T16:23:01.339Z,28.41
2023-05-04T16:25:30.296Z,27.88
2023-05-04T16:27:59.085Z,27.33
2023-05-04T16:30:32.719Z,26.72
2023-05-04T16:33:03.903Z,26.57
2023-05-04T16:35:33.290Z,26.82
2023-05-04T16:38:02.408Z,28.00
2023-05-04T16:40:32.512Z,27.58
2023-05-04T16:43:01.534Z,28.02
2023-05-04T16:45:31.880Z,28.77
2023-05-04T16:48:02.058Z,26.45
2023-05-04T16:50:31.449Z,27.28
2023-05-04T16:53:00.593Z,29.85
2023-05-04T16:55:29.583Z,29.13
2023-05-04T16:57:59.304Z,30.15
2023-05-04T17:00:29.948Z,30.49
2023-05-04T17:02:58.675Z,31.39
2023-05-04T17:05:29.213Z,31.67
2023-05-04T17:07:57.890Z,32.55
2023-05-04T17:10:26.923Z,32.61
2023-05-04T17:12:56.351Z,32.03
2023-05-04T17:15:25.926Z,33.34
2023-05-04T17:17:56.198Z,34.09
2023-05-04T17:20:28.767Z,34.46
2023-05-04T17:22:59.493Z,34.77
2023-05-04T17:25:28.721Z,34.47
2023-05-04T17:27:57.385Z,34.93
2023-05-04T17:30:27.068Z,37.28
2023-05-04T17:32:57.440Z,36.74
2023-05-04T17:35:26.984Z,37.20
2023-05-04T17:37:58.562Z,37.42
2023-05-04T17:40:29.646Z,36.46
2023-05-04T17:42:58.555Z,38.02
2023-05-04T17:45:27.626Z,37.92
2023-05-04T17:47:57.280Z,37.98
2023-05-04T17:50:26.798Z,37.88
2023-05-04T17:52:56.577Z,37.88
2023-05-04T17:55:25.830Z,37.67
2023-05-04T17:57:56.140Z,38.72
2023-05-04T18:00:25.397Z,39.76
2023-05-04T18:02:54.169Z,40.00
2023-05-04T18:05:23.255Z,40.55
2023-05-04T18:07:52.013Z,40.35
2023-05-04T18:10:21.005Z,39.40
2023-05-04T18:12:49.655Z,39.63
2023-05-04T18:15:20.319Z,39.43
2023-05-04T18:17:50.710Z,40.03
2023-05-04T18:20:19.747Z,41.11
2023-05-04T18:22:48.623Z,42.16
2023-05-04T18:25:17.536Z,41.72
2023-05-04T18:27:46.214Z,43.17
2023-05-04T18:30:15.645Z,42.93
2023-05-04T18:32:45.738Z,43.55
2023-05-04T18:35:14.737Z,43.64
2023-05-04T18:37:43.433Z,43.77
2023-05-04T18:40:13.688Z,44.81
2023-05-04T18:42:42.384Z,45.25
2023-05-04T18:45:12.900Z,45.79
2023-05-04T18:47:41.590Z,46.19
2023-05-04T18:50:12.532Z,45.35
2023-05-04T18:52:41.223Z,45.57
2023-05-04T18:55:11.164Z,45.67
2023-05-04T18:57:39.934Z,45.22
2023-05-04T19:00:11.695Z,45.48
2023-05-04T19:02:40.498Z,45.71
2023-05-04T19:05:12.951Z,46.35
2023-05-04T19:07:43.080Z,45.43
2023-05-04T19:10:12.648Z,45.24
2023-05-04T19:12:41.346Z,44.69
2023-05-04T19:15:11.021Z,44.69
2023-05-04T19:17:39.739Z,44.86
2023-05-04T19:20:11.369Z,45.77
2023-05-04T19:22:40.147Z,45.69
2023-05-04T19:25:12.255Z,45.66
2023-05-04T19:27:48.043Z,45.49
2023-05-04T19:30:18.590Z,45.48
2023-05-04T19:32:47.355Z,45.36
2023-05-04T19:35:18.449Z,45.18
2023-05-04T19:37:47.845Z,45.14
2023-05-04T19:40:16.858Z,46.25
2023-05-04T19:42:46.393Z,43.65
2023-05-04T19:45:15.979Z,45.01
2023-05-04T19:47:45.517Z,44.52
2023-05-04T19:50:16.365Z,44.28
2023-05-04T19:52:46.444Z,44.22
2023-05-04T19:55:16.528Z,43.66
2023-05-04T19:57:45.356Z,44.36
2023-05-04T20:00:17.160Z,43.76
2023-05-04T20:02:46.510Z,44.07
2023-05-04T20:05:15.718Z,43.62
2023-05-04T20:07:45.758Z,43.97
2023-05-04T20:10:14.736Z,42.69
2023-05-04T20:12:43.516Z,43.10
2023-05-04T20:15:12.717Z,42.71
2023-05-04T20:17:41.558Z,42.40
2023-05-04T20:20:11.787Z,42.66
2023-05-04T20:22:40.445Z,42.60
2023-05-04T20:25:11.725Z,41.97
2023-05-04T20:27:40.656Z,42.26
2023-05-04T20:30:10.621Z,41.94
2023-05-04T20:32:39.396Z,42.46
2023-05-04T20:35:09.451Z,42.66
2023-05-04T20:37:38.362Z,42.62
2023-05-04T20:40:11.131Z,42.04
2023-05-04T20:42:39.929Z,42.74
2023-05-04T20:45:10.094Z,42.40
2023-05-04T20:47:38.809Z,42.01
2023-05-04T20:50:10.291Z,42.46
2023-05-04T20:52:39.519Z,42.47
2023-05-04T20:55:11.263Z,42.41
2023-05-04T20:57:40.045Z,42.87
2023-05-04T21:00:11.388Z,43.02
2023-05-04T21:02:40.211Z,43.11
2023-05-04T21:05:09.802Z,43.57
2023-05-04T21:07:38.468Z,44.04
2023-05-04T21:10:10.865Z,43.79
2023-05-04T21:12:39.627Z,44.06
2023-05-04T21:15:10.258Z,43.96
2023-05-04T21:17:39.002Z,44.65
2023-05-04T21:20:09.571Z,44.77
2023-05-04T21:22:38.600Z,44.29
2023-05-04T21:25:08.187Z,44.25
2023-05-04T21:27:38.251Z,44.00
2023-05-04T21:30:09.936Z,43.38
2023-05-04T21:32:38.894Z,43.19
2023-05-04T21:35:09.021Z,43.39
2023-05-04T21:37:37.794Z,43.73
2023-05-04T21:40:09.172Z,43.60
2023-05-04T21:42:39.475Z,44.22
2023-05-04T21:45:09.714Z,44.28
2023-05-04T21:47:38.386Z,44.26
2023-05-04T21:50:08.947Z,44.11
2023-05-04T21:52:37.854Z,43.84
2023-05-04T21:55:08.070Z,44.16
2023-05-04T21:57:38.082Z,44.73
2023-05-04T22:00:12.384Z,44.51
2023-05-04T22:02:41.156Z,44.47
2023-05-04T22:05:11.559Z,44.81
2023-05-04T22:07:40.303Z,44.95
2023-05-04T22:10:11.298Z,45.06
2023-05-04T22:12:41.414Z,44.83
2023-05-04T22:15:12.859Z,44.64
2023-05-04T22:17:42.000Z,44.93
2023-05-04T22:20:12.916Z,45.41
2023-05-04T22:22:41.579Z,45.00
2023-05-04T22:25:10.976Z,45.62
2023-05-04T22:27:41.092Z,45.49
2023-05-04T22:30:11.343Z,45.99
2023-05-04T22:32:40.090Z,46.17
2023-05-04T22:35:10.277Z,46.31
2023-05-04T22:37:38.917Z,46.46
2023-05-04T22:40:10.142Z,46.57
2023-05-04T22:42:40.432Z,46.45
2023-05-04T22:45:11.421Z,46.49
2023-05-04T22:47:40.873Z,46.69
2023-05-04T22:50:11.427Z,46.28
2023-05-04T22:52:40.779Z,46.88
2023-05-04T22:55:10.594Z,47.52
2023-05-04T22:57:40.907Z,46.96
2023-05-04T23:00:12.154Z,47.59
2023-05-04T23:02:41.300Z,47.96
2023-05-04T23:05:10.872Z,48.13
2023-05-04T23:07:39.756Z,48.14
2023-05-04T23:10:10.505Z,48.78
2023-05-04T23:12:40.874Z,49.16
2023-05-04T23:15:11.164Z,49.59
2023-05-04T23:17:40.655Z,49.85
2023-05-04T23:20:11.469Z,49.97
2023-05-04T23:22:40.281Z,49.96
2023-05-04T23:25:10.175Z,50.09
2023-05-04T23:27:40.694Z,49.82
2023-05-04T23:30:10.873Z,49.15
2023-05-04T23:32:39.806Z,51.11
2023-05-04T23:35:10.156Z,51.61
2023-05-04T23:37:39.040Z,52.07
2023-05-04T23:40:10.498Z,52.21
2023-05-04T23:42:40.849Z,51.36
2023-05-04T23:45:11.716Z,50.79
2023-05-04T23:47:40.697Z,50.49
2023-05-04T23:50:11.647Z,51.47
2023-05-04T23:52:40.490Z,52.88
2023-05-04T23:55:10.578Z,52.83
2023-05-04T23:57:40.594Z,52.54
